Weather observations for the past three days for
Dodge Center Airport
Metric (Imperial)
Date Time (cdt) Wind (kph) Vis. (km) Weather Sky Cond. Temperature (ºC) Relative Humidity Wind Chill (°C) Heat Index (°C) Pressure Precipitation (cm)
Air Dwpt 6 hour altimeter (cm) sea level (mb) 1 hr 3 hr 6 hr
Max. Min.
06 06:35 W 7 14.48 Fair CLR -0.1 -4.7 71% -2 76.1 0.0
06 06:15 NW 9 12.87 Fair CLR -1.6 -4.7 80% -5 76.07 0.0
06 05:55 NW 9 14.48 Fair CLR -1.3 -4.8 77% -4 76.1 0.0
06 05:35 NW 11 14.48 Fair CLR -1.1 -4.8 76% -5 76.1 0.0
06 05:15 NW 9 16.09 Fair CLR -0.9 -4.9 75% -4 76.07 0.0
06 04:55 NW 9 16.09 Fair CLR -0.7 -4.8 74% -4 76.07 0.0
06 04:35 NW 11 16.09 Fair CLR -0.5 -4.6 74% -4 76.05 0.0
06 04:15 NW 13 14.48 Fair CLR -0.2 -4.5 73% -4 76.05 0.0
06 03:55 NW 13 16.09 Fair CLR 0.3 -4.5 71% -3 76.02 0.0
06 03:35 NW 13 16.09 Fair CLR 0.5 -4.5 70% -3 76.02 0.0
06 03:15 NW 13 16.09 Fair CLR 0.7 -4.3 70% -3 76.02 0.0
06 02:55 NW 13 16.09 Fair CLR 0.8 -4.3 69% -3 76.02 0.0
06 02:35 NW 13 16.09 Fair CLR 1.1 -4.5 67% -2 76.02 0.0
06 02:15 NW 13 16.09 Fair CLR 1.2 -4.4 67% -2 76 0.0
06 01:55 NW 13 16.09 Fair CLR 1.6 -4.4 65% -2 76 0.0
06 01:35 NW 15 16.09 Fair CLR 2 -4.5 62% -2 75.97 0.0
06 01:15 NW 17 16.09 Fair CLR 2.4 -4.5 61% -1 75.97 0.0
06 00:55 NW 17 16.09 Fair CLR 2.8 -4.6 8.9 2.7 59% -1 75.97 0.0
06 00:35 NW 17 16.09 Fair CLR 3 -4.6 58% -1 75.95 0.0
06 00:15 NW 15 16.09 Fair CLR 3.4 -4.6 56% 0 75.95 0.0
05 23:55 NW 19 16.09 Fair CLR 4.3 -4.9 52% 1 75.95 0.0
05 23:35 NW 20 16.09 Fair CLR 4.4 -4.8 52% 1 75.95 0.0
05 23:15 NW 19 16.09 Fair CLR 4.7 -4.7 51% 1 75.95 0.0
05 22:55 NW 19 16.09 Fair CLR 5.3 -4.6 49% 2 75.92 0.0
05 22:35 NW 19 16.09 Partly Cloudy SCT075 5.4 -4.5 49% 2 75.92 0.0
05 22:15 NW 20 16.09 Overcast OVC075 6.2 -4.6 46% 3 75.92 0.0
05 21:55 NW 11 16.09 Mostly Cloudy BKN075 5.9 -4.6 47% 4 75.9 0.0
05 21:35 NW 13 16.09 Overcast OVC080 6.2 -4.9 45% 4 75.9 0.0
05 21:15 NW 17 16.09 Overcast OVC080 6.9 -5.2 42% 4 75.87 0.0
05 20:55 NW 17 16.09 Overcast OVC080 7.3 -5.2 41% 5 75.84 0.0
05 20:35 NW 19 16.09 Overcast OVC075 7.5 -5.2 40% 5 75.82 0.0
05 20:15 NW 17 16.09 Overcast OVC075 7.7 -4.8 41% 5 75.82 0.0
05 19:55 NW 24 16.09 Overcast OVC080 8.3 -5.2 38% 5 75.79 0.0
05 19:35 NW 22 16.09 Overcast OVC080 8.4 -5.4 37% 5 75.79 0.0
05 19:15 NW 22 14.48 Overcast OVC075 8.7 -4.9 38% 6 75.77 0.0
05 18:55 NW 24 16.09 Overcast OVC070 8.8 -4.8 11.2 8.5 38% 6 75.77 0.0
05 18:35 NW 22 G 35 16.09 Overcast OVC070 8.9 -4.8 38% 6 75.77 0.0
05 18:15 NW 17 16.09 Overcast OVC075 9.1 -4.2 39% 7 75.77 0.0
05 17:55 NW 20 16.09 Overcast OVC075 9.2 -4.4 38% 7 75.77 0.0
05 17:35 NW 20 16.09 Overcast OVC075 9.6 -3.6 40% 7 75.77 0.0
05 17:15 NW 26 16.09 Overcast OVC075 9.5 -4 39% 7 75.77 0.0
05 16:55 NW 24 16.09 Overcast OVC070 9.5 -4.5 37% 7 75.77 0.0
05 16:35 NW 20 16.09 Overcast OVC075 9.5 -4.1 38% 7 75.77 0.0
05 16:15 NW 26 G 41 16.09 Mostly Cloudy BKN065 BKN075 9.6 -4.1 38% 7 75.77 0.0
05 15:55 W 22 G 31 16.09 Overcast SCT065 OVC080 10.5 -3.4 38% 75.79 0.0
05 15:35 NW 20 16.09 Overcast OVC070 10 -3.2 40% 8 75.79 0.0
05 15:15 NW 28 G 37 16.09 Overcast OVC070 9.7 -3.8 39% 7 75.79 0.0
05 14:55 NW 22 16.09 Overcast BKN065 OVC080 9.2 -3.8 40% 6 75.82 0.0
05 14:35 NW 30 16.09 Overcast SCT060 OVC075 10 -3.3 39% 7 75.82 0.0
05 14:15 W 24 G 35 14.48 Overcast SCT060 OVC075 9.6 -3.9 39% 7 75.82 0.0
05 13:55 W 22 16.09 Overcast OVC070 9 -4.3 39% 6 75.82 0.0
05 13:35 NW 26 G 39 16.09 Overcast OVC070 8.6 -4.3 40% 5 75.82 0.0
05 13:15 NW 33 16.09 Overcast and Breezy OVC070 9.2 -4.1 39% 6 75.79 0.0
05 12:55 NW 22 G 37 16.09 Overcast OVC060 8.6 -3.5 9.5 3 43% 6 75.82 0.0
05 12:35 NW 22 G 37 16.09 Overcast BKN060 OVC070 8.6 -4.3 40% 6 75.82 0.0
05 12:15 W 26 16.09 Mostly Cloudy BKN060 BKN070 8.6 -4.1 41% 5 75.79 0.0
05 11:55 W 22 G 33 16.09 Mostly Cloudy BKN070 9.4 -3.8 40% 7 75.82 0.0
05 11:35 NW 19 G 35 16.09 Overcast OVC070 8.2 -4.3 41% 6 75.82 0.0
05 11:15 NW 24 G 39 16.09 Mostly Cloudy BKN055 BKN075 8.9 -3.6 41% 6 75.82 0.0
05 10:55 NW 26 G 35 16.09 Overcast OVC055 8.1 -3.6 44% 5 75.82 0.0
05 10:35 NW 22 G 33 16.09 Mostly Cloudy BKN055 7.4 -3.9 45% 4 75.82 0.0
05 10:15 NW 19 16.09 A Few Clouds FEW050 8 -3.7 44% 5 75.79 0.0
05 09:55 NW 15 16.09 Fair CLR 7.2 -3.7 46% 5 75.79 0.0
05 09:35 N 19 16.09 Fair CLR 6.8 -4.2 46% 4 75.79 0.0
05 09:15 NW 19 16.09 Fair CLR 6.5 -3.4 50% 3 75.79 0.0
05 08:55 N 15 16.09 Fair CLR 5.8 -3.4 52% 3 75.77 0.0
05 08:35 NW 17 16.09 Fair CLR 5.4 -3.3 54% 2 75.77 0.0
05 08:15 NW 17 14.48 Fair CLR 5.3 -2.3 58% 2 75.77 0.0
05 07:55 NW 13 14.48 Fair CLR 4.4 -1.9 64% 2 75.74 0.0
05 07:35 NW 13 14.48 Fair CLR 3.9 -2.1 65% 1 75.72 0.0
05 07:15 NW 11 16.09 Fair CLR 3.6 -2.7 64% 1 75.72 0.0
05 06:55 NW 9 16.09 Fair CLR 2.7 -2.9 5.5 -0.2 67% 0 75.69 0.0
05 06:35 NW 13 14.48 Fair CLR 2.1 -3.1 69% -1 75.67 0.0
05 06:15 NW 11 14.48 Fair CLR 1.6 -3.2 71% -1 75.62 0.0
05 05:55 NW 13 14.48 Fair CLR 1.8 -3.3 69% -1 75.59 0.0
05 05:35 NW 13 14.48 Fair CLR 1.7 -3.2 70% -2 75.59 0.0
05 05:15 W 11 16.09 Fair CLR 1.1 -3.2 73% -2 75.57 0.0
05 04:55 W 9 16.09 Fair CLR 0 -3.5 78% -3 75.59 0.0
05 04:35 W 11 16.09 Fair CLR 0.6 -3.4 75% -2 75.59 0.0
05 04:15 W 11 16.09 Fair CLR 0.7 -3.2 75% -2 75.57 0.0
05 03:55 W 11 16.09 Fair CLR 1 -3.1 74% -2 75.57 0.0
05 03:35 W 13 16.09 Fair CLR 1.1 -3.1 74% -2 75.54 0.0
05 03:15 W 11 16.09 Fair CLR 1.5 -3.1 72% -1 75.51 0.0
05 02:55 W 13 16.09 Fair CLR 3.9 -3.4 59% 1 75.51 0.0
05 02:35 W 13 16.09 Fair CLR 4 -3.3 59% 1 75.51 0.0
05 02:15 W 17 16.09 A Few Clouds FEW270 4.5 -3.4 57% 1 75.51 0.0
05 01:55 W 15 16.09 A Few Clouds FEW270 4.9 -3.4 55% 2 75.51 0.0
05 01:35 W 15 16.09 Fair CLR 5.2 -3.6 53% 2 75.51 0.0
05 01:15 W 15 16.09 Fair CLR 5.1 -3.5 54% 2 75.51 0.0
05 00:55 W 17 16.09 Fair CLR 5.8 -3.8 12 5.1 50% 3 75.49 0.0
05 00:35 W 17 16.09 Fair CLR 5.7 -3.4 52% 3 75.51 0.0
05 00:15 W 11 16.09 Partly Cloudy SCT220 5.4 -3 55% 3 75.49 0.0
04 23:55 W 11 16.09 A Few Clouds FEW220 5.2 -3 56% 3 75.49 0.0
04 23:35 W 11 16.09 Fair CLR 5.1 -3.3 55% 3 75.49 0.0
04 23:15 NW 15 16.09 Fair CLR 5.7 -3.7 51% 3 75.49 0.0
04 22:55 NW 15 16.09 Fair CLR 6.4 -3.9 48% 4 75.49 0.0
04 22:35 NW 19 16.09 Fair CLR 6.7 -3.6 48% 4 75.49 0.0
04 22:15 NW 22 16.09 Fair CLR 7.3 -3.4 47% 4 75.49 0.0
04 21:55 NW 30 16.09 A Few Clouds FEW200 8.2 -2.8 46% 5 75.46 0.0
04 21:35 NW 31 G 46 16.09 A Few Clouds FEW200 8.5 -2.7 46% 5 75.44 0.0
04 21:15 NW 26 16.09 Fair CLR 8.9 -3 43% 6 75.39 0.0
04 20:55 NW 26 16.09 Fair CLR 9.2 -2.9 43% 6 75.36 0.0
04 20:35 NW 28 G 37 14.48 Fair CLR 9.6 -2.9 42% 7 75.34 0.0
04 20:15 NW 28 G 43 14.48 A Few Clouds FEW160 10 -2.3 42% 7 75.31 0.0
04 19:55 NW 30 G 41 14.48 Fair CLR 10.7 -1.9 42% 75.26 0.0
04 19:35 NW 33 G 46 14.48 Fair and Breezy CLR 11.1 -1.7 41% 75.26 0.0
04 19:15 NW 30 G 48 14.48 Fair CLR 11.6 -1.3 41% 75.23 0.0
04 18:55 NW 26 G 41 12.87 A Few Clouds FEW060 12.3 -1 17.6 12.3 40% 75.23 0.0
04 18:35 NW 26 G 43 14.48 A Few Clouds FEW160 12.9 -0.9 39% 75.21 0.0
04 18:15 NW 31 G 46 16.09 Partly Cloudy FEW065 SCT160 13.5 -0.6 38% 75.18 0.0
04 17:55 NW 30 G 46 16.09 Mostly Cloudy BKN160 14.2 -0.6 36% 75.16 0.0
04 17:35 NW 37 G 48 16.09 A Few Clouds and Breezy FEW230 14.4 -0.3 37% 75.13 0.0
04 17:15 NW 33 G 46 14.48 A Few Clouds and Breezy FEW220 14.9 -0.7 35% 75.11 0.0
04 16:55 NW 35 G 52 14.48 Fair and Breezy CLR 15.2 -0.9 33% 75.08 0.0
04 16:35 W 35 G 54 16.09 Fair and Breezy CLR 15.7 0.4 36% 75.08 0.0
04 16:15 NW 33 16.09 A Few Clouds and Breezy FEW340 15.1 -0.3 35% 75.08 0.0
04 15:55 W 41 G 50 16.09 Fair and Breezy CLR 16.1 -0.9 32% 75.08 0.0
04 15:35 NW 44 G 59 16.09 Fair and Windy CLR 16.3 -2 29% 75.08 0.0
04 15:15 NW 37 G 52 16.09 A Few Clouds and Breezy FEW150 16.8 -3 26% 75.06 0.0
04 14:55 NW 37 G 52 14.48 A Few Clouds and Breezy FEW130 16.5 -1.9 29% 75.06 0.0
04 14:35 W 33 G 54 16.09 A Few Clouds and Breezy FEW270 16.5 -2.3 28% 75.06 0.0
04 14:15 W 44 G 57 14.48 Partly Cloudy and Windy FEW140 SCT340 SCT360 17 -1.2 29% 75.06 0.0
04 13:55 W 35 G 48 16.09 Mostly Cloudy and Breezy FEW150 SCT270 SCT320 BKN360 16.6 0 33% 75.03 0.0
04 13:35 W 31 G 48 16.09 Mostly Cloudy SCT160 BKN360 16.9 -0.1 32% 75.03 0.0
04 13:15 NW 31 G 43 16.09 Mostly Cloudy BKN160 BKN190 17.2 1.1 34% 75.01 0.0
04 12:55 NW 28 G 43 16.09 A Few Clouds FEW240 18.2 1.9 18.6 11.5 34% 74.98 0.0
04 12:35 NW 30 G 44 16.09 A Few Clouds FEW160 18.1 2.2 35% 74.96 0.0
04 12:15 W 33 G 44 14.48 A Few Clouds and Breezy FEW150 18.2 1.2 32% 74.96 0.0
04 11:55 NW 20 G 37 16.09 Partly Cloudy FEW280 SCT350 17.9 3 37% 74.96 0.0
04 11:35 W 30 16.09 Partly Cloudy FEW280 SCT320 17.5 2.5 37% 74.96 0.0
04 11:15 NW 22 G 33 16.09 A Few Clouds FEW260 17.3 4.2 42% 74.93 0.0
04 10:55 NW 19 14.48 A Few Clouds FEW210 17 5.1 46% 74.93 0.0
04 10:35 NW 26 16.09 A Few Clouds FEW210 17.1 5 45% 74.93 0.0
04 10:15 W 26 G 44 16.09 Fair CLR 17.3 5.5 46% 74.93 0.0
04 09:55 W 28 G 44 16.09 A Few Clouds FEW360 16.6 5.1 47% 74.9 0.0
04 09:35 W 31 G 44 14.48 Fair CLR 16.4 4.9 47% 74.9 0.0
04 09:15 NW 35 16.09 Fair and Breezy CLR 16.2 4.6 46% 74.88 0.0
04 08:55 W 37 G 56 14.48 A Few Clouds and Breezy FEW360 16.5 3.6 42% 74.9 0.0
04 08:35 W 28 14.48 A Few Clouds FEW350 17 4 42% 74.9 0.0
04 08:15 SW 28 14.48 A Few Clouds FEW100 15.7 4.1 46% 74.88 0.0
04 07:55 SW 26 12.87 Mostly Cloudy BKN095 13.7 3.3 50% 74.85 0.0
04 07:35 SW 24 12.87 Partly Cloudy SCT095 12.9 2.9 51% 74.85 0.0
04 07:15 SW 26 12.87 Fair CLR 11.7 2.6 54% 74.85 0.0
04 06:55 SW 24 12.87 Fair CLR 11.3 2 11.9 9.1 53% 74.85 0.0
04 06:35 SW 24 12.87 Fair CLR 11.1 1.8 53% 74.85 0.0
04 06:15 SW 24 14.48 Fair CLR 10.6 1.9 55% 74.88 0.0
04 05:55 SW 19 14.48 Fair CLR 9.9 1.7 57% 8 74.9 0.0
04 05:35 SW 22 16.09 Fair CLR 9.9 1.5 56% 7 74.9 0.0
04 05:15 SW 19 14.48 Fair CLR 9.2 1.5 59% 7 74.93 0.0
04 04:55 SW 20 14.48 Fair CLR 9.4 1 56% 7 74.96 0.0
04 04:35 SW 20 16.09 Fair CLR 9.8 0.9 54% 7 74.98 0.0
04 04:15 SW 22 16.09 Fair CLR 10.4 0.6 51% 74.98 0.0
04 03:55 SW 20 16.09 Fair CLR 11.1 0.5 48% 75.01 0.0
04 03:35 SW 22 16.09 Fair CLR 10.9 0.6 49% 75.01 0.0
04 03:15 SW 20 16.09 Fair CLR 10.8 0.5 49% 75.03 0.0
04 02:55 SW 19 16.09 Fair CLR 10.6 0.5 50% 75.08 0.0
04 02:35 SW 19 14.48 Fair CLR 10.3 0.4 51% 75.08 0.0
04 02:15 SW 19 14.48 Fair CLR 11.4 0.2 46% 75.11 0.0
04 01:55 SW 20 16.09 Fair CLR 11.6 0.3 46% 75.13 0.0
04 01:35 SW 22 16.09 Fair CLR 11.5 0.4 47% 75.16 0.0
04 01:15 SW 20 16.09 Fair CLR 10.9 0.9 50% 75.18 0.0
04 00:55 S 19 16.09 Fair CLR 10.2 1.3 19.3 8.6 54% 75.23 0.0
04 00:35 SW 17 14.48 Fair CLR 9.8 1.4 56% 8 75.23 0.0
04 00:15 SW 7 12.87 Fair CLR 9.5 0.7 55% 9 75.26 0.0
03 23:55 SW 7 12.87 Fair CLR 9.7 0.7 54% 9 75.29 0.0
03 23:35 SW 7 14.48 Fair CLR 8.9 0.9 58% 8 75.29 0.0
03 23:15 SW 13 14.48 Fair CLR 9.9 0.2 51% 8 75.31 0.0
03 22:55 SW 11 11.27 Fair CLR 10.8 0 48% 75.34 0.0
03 22:35 SW 11 11.27 Fair CLR 9.9 0.5 52% 9 75.36 0.0
03 22:15 SW 11 14.48 Fair CLR 10.3 0.2 50% 75.36 0.0
03 21:55 W 9 14.48 Fair CLR 12.9 0.1 42% 75.41 0.0
03 21:35 W 9 14.48 Fair CLR 13.9 0.5 40% 75.41 0.0
03 21:15 W 9 12.87 Fair CLR 13.2 0.2 41% 75.41 0.0
03 20:55 W 9 12.87 Fair CLR 13.8 0.6 41% 75.39 0.0
03 20:35 W 11 12.87 Fair CLR 15.3 -0.1 35% 75.39 0.0
03 20:15 W 11 12.87 Fair CLR 16.3 -0.1 33% 75.39 0.0
03 19:55 W 15 12.87 Fair CLR 17.6 0.1 31% 75.39 0.0
03 19:35 NW 15 14.48 Fair CLR 18.6 -0.2 28% 75.39 0.0
03 19:15 W 22 G 31 14.48 Fair CLR 19.1 0 28% 75.39 0.0
03 18:55 NW 22 14.48 Fair CLR 19.4 -0.1 21 19.4 27% 75.39 0.0
03 18:35 NW 22 16.09 Fair CLR 19.8 0.6 28% 75.41 0.0
03 18:15 NW 20 G 37 14.48 Fair CLR 20 0.1 26% 75.41 0.0
03 17:55 NW 24 14.48 Fair CLR 20.1 0.1 26% 75.39 0.0
03 17:35 NW 24 14.48 Fair CLR 20.2 0.1 26% 75.41 0.0
03 17:15 NW 20 G 35 16.09 Fair CLR 20.6 1.1 27% 75.39 0.0
03 16:55 W 20 G 37 16.09 Fair CLR 20.8 1.7 28% 75.41 0.0
03 16:35 NW 20 16.09 Fair CLR 20.8 1.4 28% 75.41 0.0
03 16:15 NW 30 G 43 16.09 Fair CLR 20.6 2.3 30% 75.41 0.0
03 15:55 NW 24 G 35 14.48 Fair CLR 20.5 2.1 30% 75.41 0.0
03 15:35 NW 31 G 41 16.09 Fair CLR 20.6 2.1 29% 75.44 0.0
03 15:15 NW 31 G 39 16.09 Fair CLR 20.5 2.8 31% 75.44 0.0
03 14:55 NW 28 G 37 16.09 Fair CLR 20.7 4 33% 75.44 0.0
03 14:35 NW 19 14.48 Fair CLR 20.3 3.3 33% 75.46 0.0
03 14:15 NW 26 G 37 14.48 Fair CLR 20.2 2.5 31% 75.46 0.0
03 13:55 NW 28 G 39 16.09 A Few Clouds FEW340 20.3 2.9 32% 75.46 0.0
03 13:35 NW 24 G 33 16.09 Fair CLR 20.3 3.1 32% 75.46 0.0
03 13:15 NW 28 G 43 14.48 Fair CLR 19.8 3.1 33% 75.46 0.0
03 12:55 N 26 G 37 14.48 Fair CLR 19.3 4.1 19.5 10.4 37% 75.49 0.0
03 12:35 NW 26 G 39 14.48 Fair CLR 19.2 4 37% 75.49 0.0
03 12:15 N 30 G 39 16.09 Fair CLR 18.9 4.3 38% 75.49 0.0
03 11:55 N 26 14.48 Fair CLR 18.2 4.5 41% 75.49 0.0
03 11:35 NW 26 16.09 Fair CLR 18 4.9 42% 75.49 0.0
03 11:15 NW 24 G 35 16.09 Fair CLR 17.4 4.7 43% 75.49 0.0
03 10:55 NW 28 16.09 Fair CLR 16.8 4.5 44% 75.46 0.0
03 10:35 NW 22 16.09 Fair CLR 16.8 4.8 45% 75.46 0.0
03 10:15 NW 17 14.48 Fair CLR 15.8 4.7 48% 75.44 0.0
03 09:55 W 20 16.09 Fair CLR 15.4 4 47% 75.46 0.0
03 09:35 W 22 16.09 Fair CLR 15.3 3.6 46% 75.44 0.0
03 09:15 W 22 16.09 Fair CLR 14.6 3.5 48% 75.46 0.0
03 08:55 W 31 16.09 Fair CLR 13.5 2.4 47% 75.44 0.0
03 08:35 SW 30 16.09 Fair CLR 13 1.8 47% 75.44 0.0
03 08:15 SW 33 G 43 14.48 Fair and Breezy CLR 12.3 1.4 48% 75.44 0.0
03 07:55 SW 31 14.48 Fair CLR 11.5 1.2 49% 75.44 0.0
03 07:35 SW 33 16.09 Fair and Breezy CLR 11.1 0.9 50% 75.41 0.0
03 07:15 SW 35 14.48 Fair and Breezy CLR 10.7 0.6 50% 75.44 0.0
03 06:55 SW 30 14.48 Fair CLR 10.1 0.6 13.1 10 52% 75.44 0.0
Date Time (cdt) Wind (kph) Vis. (km) Weather Sky Cond. Air Dwpt Max. Min. Relative Humidity Wind Chill (°C) Heat Index (°C) altimeter (cm) sea level (mb) 1 hr 3 hr 6 hr
6 hour
Temperature (ºC) Pressure Precipitation (cm)